sensor_id;sensor_type;location;lat;lon;timestamp;temperature;humidity
9730;DHT22;4904;49.152;11.004;2022-09-14T00:02:03;17.90;99.90
9730;DHT22;4904;49.152;11.004;2022-09-14T00:04:30;17.90;99.90
9730;DHT22;4904;49.152;11.004;2022-09-14T00:06:57;17.90;99.90
9730;DHT22;4904;49.152;11.004;2022-09-14T00:09:24;18.00;99.90
9730;DHT22;4904;49.152;11.004;2022-09-14T00:11:51;17.90;99.90
9730;DHT22;4904;49.152;11.004;2022-09-14T00:14:19;18.00;99.90
9730;DHT22;4904;49.152;11.004;2022-09-14T00:16:46;17.90;99.90
9730;DHT22;4904;49.152;11.004;2022-09-14T00:19:17;18.00;99.90
9730;DHT22;4904;49.152;11.004;2022-09-14T00:21:44;18.00;99.90
9730;DHT22;4904;49.152;11.004;2022-09-14T00:24:11;18.00;99.90
9730;DHT22;4904;49.152;11.004;2022-09-14T00:26:38;18.00;99.90
9730;DHT22;4904;49.152;11.004;2022-09-14T00:29:05;18.00;99.90
9730;DHT22;4904;49.152;11.004;2022-09-14T00:31:34;17.90;99.90
9730;DHT22;4904;49.152;11.004;2022-09-14T00:34:02;17.90;99.90
9730;DHT22;4904;49.152;11.004;2022-09-14T00:36:32;17.90;99.90
9730;DHT22;4904;49.152;11.004;2022-09-14T00:38:59;17.80;99.90
9730;DHT22;4904;49.152;11.004;2022-09-14T00:41:28;17.80;99.90
9730;DHT22;4904;49.152;11.004;2022-09-14T00:43:58;17.80;99.90
9730;DHT22;4904;49.152;11.004;2022-09-14T00:46:27;17.70;99.90
9730;DHT22;4904;49.152;11.004;2022-09-14T00:48:56;17.80;99.90
9730;DHT22;4904;49.152;11.004;2022-09-14T00:51:24;17.70;99.90
9730;DHT22;4904;49.152;11.004;2022-09-14T00:53:52;17.70;99.90
9730;DHT22;4904;49.152;11.004;2022-09-14T00:56:20;17.70;99.90
9730;DHT22;4904;49.152;11.004;2022-09-14T00:58:49;17.70;99.90
9730;DHT22;4904;49.152;11.004;2022-09-14T01:01:16;17.80;99.90
9730;DHT22;4904;49.152;11.004;2022-09-14T01:03:43;17.80;99.90
9730;DHT22;4904;49.152;11.004;2022-09-14T01:06:16;17.90;99.90
9730;DHT22;4904;49.152;11.004;2022-09-14T01:08:57;17.80;99.90
9730;DHT22;4904;49.152;11.004;2022-09-14T01:11:39;17.80;99.90
9730;DHT22;4904;49.152;11.004;2022-09-14T01:14:13;17.80;99.90
9730;DHT22;4904;49.152;11.004;2022-09-14T01:16:46;17.80;99.90
9730;DHT22;4904;49.152;11.004;2022-09-14T01:19:22;17.80;99.90
9730;DHT22;4904;49.152;11.004;2022-09-14T01:21:51;17.70;99.90
9730;DHT22;4904;49.152;11.004;2022-09-14T01:24:26;17.70;99.90
9730;DHT22;4904;49.152;11.004;2022-09-14T01:27:20;17.70;99.90
9730;DHT22;4904;49.152;11.004;2022-09-14T01:29:56;17.80;99.90
9730;DHT22;4904;49.152;11.004;2022-09-14T01:32:29;17.80;99.90
9730;DHT22;4904;49.152;11.004;2022-09-14T01:35:02;17.80;99.90
9730;DHT22;4904;49.152;11.004;2022-09-14T01:37:35;17.80;99.90
9730;DHT22;4904;49.152;11.004;2022-09-14T01:40:06;17.80;99.90
9730;DHT22;4904;49.152;11.004;2022-09-14T01:42:37;17.80;99.90
9730;DHT22;4904;49.152;11.004;2022-09-14T01:45:09;17.70;99.90
9730;DHT22;4904;49.152;11.004;2022-09-14T01:47:40;17.60;99.90
9730;DHT22;4904;49.152;11.004;2022-09-14T01:50:11;17.60;99.90
9730;DHT22;4904;49.152;11.004;2022-09-14T01:52:43;17.60;99.90
9730;DHT22;4904;49.152;11.004;2022-09-14T01:55:15;17.60;99.90
9730;DHT22;4904;49.152;11.004;2022-09-14T01:57:48;17.60;99.90
9730;DHT22;4904;49.152;11.004;2022-09-14T02:00:17;17.70;99.90
9730;DHT22;4904;49.152;11.004;2022-09-14T02:02:49;17.70;99.90
9730;DHT22;4904;49.152;11.004;2022-09-14T02:05:21;17.70;99.90
9730;DHT22;4904;49.152;11.004;2022-09-14T02:07:50;17.70;99.90
9730;DHT22;4904;49.152;11.004;2022-09-14T02:10:17;17.60;99.90
9730;DHT22;4904;49.152;11.004;2022-09-14T02:12:45;17.50;99.90
9730;DHT22;4904;49.152;11.004;2022-09-14T02:15:13;17.50;99.90
9730;DHT22;4904;49.152;11.004;2022-09-14T02:17:41;17.40;99.90
9730;DHT22;4904;49.152;11.004;2022-09-14T02:20:14;17.40;99.90
9730;DHT22;4904;49.152;11.004;2022-09-14T02:22:42;17.50;99.90
9730;DHT22;4904;49.152;11.004;2022-09-14T02:25:09;17.50;99.90
9730;DHT22;4904;49.152;11.004;2022-09-14T02:27:36;17.50;99.90
9730;DHT22;4904;49.152;11.004;2022-09-14T02:30:06;17.50;99.90
9730;DHT22;4904;49.152;11.004;2022-09-14T02:32:39;17.50;99.90
9730;DHT22;4904;49.152;11.004;2022-09-14T02:35:15;17.60;99.90
9730;DHT22;4904;49.152;11.004;2022-09-14T02:37:47;17.60;99.90
9730;DHT22;4904;49.152;11.004;2022-09-14T02:40:23;17.60;99.90
9730;DHT22;4904;49.152;11.004;2022-09-14T02:42:59;17.50;99.90
9730;DHT22;4904;49.152;11.004;2022-09-14T02:45:33;17.50;99.90
9730;DHT22;4904;49.152;11.004;2022-09-14T02:48:06;17.40;99.90
9730;DHT22;4904;49.152;11.004;2022-09-14T02:50:44;17.40;99.90
9730;DHT22;4904;49.152;11.004;2022-09-14T02:53:16;17.60;99.90
9730;DHT22;4904;49.152;11.004;2022-09-14T02:55:48;17.40;99.90
9730;DHT22;4904;49.152;11.004;2022-09-14T02:58:17;17.50;99.90
9730;DHT22;4904;49.152;11.004;2022-09-14T03:00:47;17.40;99.90
9730;DHT22;4904;49.152;11.004;2022-09-14T03:03:16;17.40;99.90
9730;DHT22;4904;49.152;11.004;2022-09-14T03:05:44;17.30;99.90
9730;DHT22;4904;49.152;11.004;2022-09-14T03:08:12;17.30;99.90
9730;DHT22;4904;49.152;11.004;2022-09-14T03:10:41;17.10;99.90
9730;DHT22;4904;49.152;11.004;2022-09-14T03:13:09;17.00;99.90
9730;DHT22;4904;49.152;11.004;2022-09-14T03:15:36;17.00;99.90
9730;DHT22;4904;49.152;11.004;2022-09-14T03:18:05;17.00;99.90
9730;DHT22;4904;49.152;11.004;2022-09-14T03:20:33;17.00;99.90
9730;DHT22;4904;49.152;11.004;2022-09-14T03:23:01;17.20;99.90
9730;DHT22;4904;49.152;11.004;2022-09-14T03:25:28;17.20;99.90
9730;DHT22;4904;49.152;11.004;2022-09-14T03:27:58;17.20;99.90
9730;DHT22;4904;49.152;11.004;2022-09-14T03:30:25;17.00;99.90
9730;DHT22;4904;49.152;11.004;2022-09-14T03:32:53;17.00;99.90
9730;DHT22;4904;49.152;11.004;2022-09-14T03:35:22;16.80;99.90
9730;DHT22;4904;49.152;11.004;2022-09-14T03:37:49;16.80;99.90
9730;DHT22;4904;49.152;11.004;2022-09-14T03:40:16;16.80;99.90
9730;DHT22;4904;49.152;11.004;2022-09-14T03:42:44;16.90;99.90
9730;DHT22;4904;49.152;11.004;2022-09-14T03:45:12;16.90;99.90
9730;DHT22;4904;49.152;11.004;2022-09-14T03:47:40;17.00;99.90
9730;DHT22;4904;49.152;11.004;2022-09-14T03:50:08;17.10;99.90
9730;DHT22;4904;49.152;11.004;2022-09-14T03:52:37;17.10;99.90
9730;DHT22;4904;49.152;11.004;2022-09-14T03:55:05;17.10;99.90
9730;DHT22;4904;49.152;11.004;2022-09-14T03:57:32;17.00;99.90
9730;DHT22;4904;49.152;11.004;2022-09-14T03:59:59;16.60;99.90
9730;DHT22;4904;49.152;11.004;2022-09-14T04:02:27;16.30;99.90
9730;DHT22;4904;49.152;11.004;2022-09-14T04:04:54;16.30;99.90
9730;DHT22;4904;49.152;11.004;2022-09-14T04:07:21;16.30;99.90
9730;DHT22;4904;49.152;11.004;2022-09-14T04:09:49;16.50;99.90
9730;DHT22;4904;49.152;11.004;2022-09-14T04:12:16;16.50;99.90
9730;DHT22;4904;49.152;11.004;2022-09-14T04:14:43;16.70;99.90
9730;DHT22;4904;49.152;11.004;2022-09-14T04:17:10;16.80;99.90
9730;DHT22;4904;49.152;11.004;2022-09-14T04:19:37;16.80;99.90
9730;DHT22;4904;49.152;11.004;2022-09-14T04:22:06;16.60;99.90
9730;DHT22;4904;49.152;11.004;2022-09-14T04:24:33;16.50;99.90
9730;DHT22;4904;49.152;11.004;2022-09-14T04:27:01;16.60;99.90
9730;DHT22;4904;49.152;11.004;2022-09-14T04:29:28;16.80;99.90
9730;DHT22;4904;49.152;11.004;2022-09-14T04:31:55;16.80;99.90
9730;DHT22;4904;49.152;11.004;2022-09-14T04:34:22;16.90;99.90
9730;DHT22;4904;49.152;11.004;2022-09-14T04:36:49;16.90;99.90
9730;DHT22;4904;49.152;11.004;2022-09-14T04:39:16;17.00;99.90
9730;DHT22;4904;49.152;11.004;2022-09-14T04:41:43;16.80;99.90
9730;DHT22;4904;49.152;11.004;2022-09-14T04:44:12;16.80;99.90
9730;DHT22;4904;49.152;11.004;2022-09-14T04:46:40;16.80;99.90
9730;DHT22;4904;49.152;11.004;2022-09-14T04:49:08;16.90;99.90
9730;DHT22;4904;49.152;11.004;2022-09-14T04:51:36;17.00;99.90
9730;DHT22;4904;49.152;11.004;2022-09-14T04:54:04;17.10;99.90
9730;DHT22;4904;49.152;11.004;2022-09-14T04:56:34;17.10;99.90
9730;DHT22;4904;49.152;11.004;2022-09-14T04:59:02;17.10;99.90
9730;DHT22;4904;49.152;11.004;2022-09-14T05:01:33;17.10;99.90
9730;DHT22;4904;49.152;11.004;2022-09-14T05:04:01;17.20;99.90
9730;DHT22;4904;49.152;11.004;2022-09-14T05:06:30;17.40;99.90
9730;DHT22;4904;49.152;11.004;2022-09-14T05:08:58;17.20;99.90
9730;DHT22;4904;49.152;11.004;2022-09-14T05:11:27;17.20;99.90
9730;DHT22;4904;49.152;11.004;2022-09-14T05:13:55;17.20;99.90
9730;DHT22;4904;49.152;11.004;2022-09-14T05:16:24;17.10;99.90
9730;DHT22;4904;49.152;11.004;2022-09-14T05:18:56;17.10;99.90
9730;DHT22;4904;49.152;11.004;2022-09-14T05:21:24;16.70;99.90
9730;DHT22;4904;49.152;11.004;2022-09-14T05:23:54;16.80;99.90
9730;DHT22;4904;49.152;11.004;2022-09-14T05:26:22;16.90;99.90
9730;DHT22;4904;49.152;11.004;2022-09-14T05:28:51;16.90;99.90
9730;DHT22;4904;49.152;11.004;2022-09-14T05:31:19;17.00;99.90
9730;DHT22;4904;49.152;11.004;2022-09-14T05:33:46;17.00;99.90
9730;DHT22;4904;49.152;11.004;2022-09-14T05:36:17;17.20;99.90
9730;DHT22;4904;49.152;11.004;2022-09-14T05:38:44;17.20;99.90
9730;DHT22;4904;49.152;11.004;2022-09-14T05:41:12;17.30;99.90
9730;DHT22;4904;49.152;11.004;2022-09-14T05:43:40;17.20;99.90
9730;DHT22;4904;49.152;11.004;2022-09-14T05:46:09;17.30;99.90
9730;DHT22;4904;49.152;11.004;2022-09-14T05:48:37;17.10;99.90
9730;DHT22;4904;49.152;11.004;2022-09-14T05:51:08;17.10;99.90
9730;DHT22;4904;49.152;11.004;2022-09-14T05:53:37;17.10;99.90
9730;DHT22;4904;49.152;11.004;2022-09-14T05:56:06;17.10;99.90
9730;DHT22;4904;49.152;11.004;2022-09-14T05:58:34;17.00;99.90
9730;DHT22;4904;49.152;11.004;2022-09-14T06:01:06;16.90;99.90
9730;DHT22;4904;49.152;11.004;2022-09-14T06:03:33;16.70;99.90
9730;DHT22;4904;49.152;11.004;2022-09-14T06:06:00;16.70;99.90
9730;DHT22;4904;49.152;11.004;2022-09-14T06:08:27;16.90;99.90
9730;DHT22;4904;49.152;11.004;2022-09-14T06:11:01;16.80;99.90
9730;DHT22;4904;49.152;11.004;2022-09-14T06:13:28;16.80;99.90
9730;DHT22;4904;49.152;11.004;2022-09-14T06:15:55;16.80;99.90
9730;DHT22;4904;49.152;11.004;2022-09-14T06:18:22;16.80;99.90
9730;DHT22;4904;49.152;11.004;2022-09-14T06:20:49;16.90;99.90
9730;DHT22;4904;49.152;11.004;2022-09-14T06:23:17;16.90;99.90
9730;DHT22;4904;49.152;11.004;2022-09-14T06:25:44;16.90;99.90
9730;DHT22;4904;49.152;11.004;2022-09-14T06:28:12;16.90;99.90
9730;DHT22;4904;49.152;11.004;2022-09-14T06:30:42;16.70;99.90
9730;DHT22;4904;49.152;11.004;2022-09-14T06:33:09;16.60;99.90
9730;DHT22;4904;49.152;11.004;2022-09-14T06:35:36;16.50;99.90
9730;DHT22;4904;49.152;11.004;2022-09-14T06:38:03;16.70;99.90
9730;DHT22;4904;49.152;11.004;2022-09-14T06:40:30;16.60;99.90
9730;DHT22;4904;49.152;11.004;2022-09-14T06:42:57;16.80;99.90
9730;DHT22;4904;49.152;11.004;2022-09-14T06:45:28;16.80;99.90
9730;DHT22;4904;49.152;11.004;2022-09-14T06:47:55;16.70;99.90
9730;DHT22;4904;49.152;11.004;2022-09-14T06:50:23;16.70;99.90
9730;DHT22;4904;49.152;11.004;2022-09-14T06:52:50;16.80;99.90
9730;DHT22;4904;49.152;11.004;2022-09-14T06:55:16;16.70;99.90
9730;DHT22;4904;49.152;11.004;2022-09-14T06:57:46;16.70;99.90
9730;DHT22;4904;49.152;11.004;2022-09-14T07:00:14;16.80;99.90
9730;DHT22;4904;49.152;11.004;2022-09-14T07:02:43;16.80;99.90
9730;DHT22;4904;49.152;11.004;2022-09-14T07:05:09;16.80;99.90
9730;DHT22;4904;49.152;11.004;2022-09-14T07:07:37;16.80;99.90
9730;DHT22;4904;49.152;11.004;2022-09-14T07:10:05;16.80;99.90
9730;DHT22;4904;49.152;11.004;2022-09-14T07:12:31;16.80;99.90
9730;DHT22;4904;49.152;11.004;2022-09-14T07:14:58;16.90;99.90
9730;DHT22;4904;49.152;11.004;2022-09-14T07:17:25;16.90;99.90
9730;DHT22;4904;49.152;11.004;2022-09-14T07:19:53;16.90;99.90
9730;DHT22;4904;49.152;11.004;2022-09-14T07:22:20;16.90;99.90
9730;DHT22;4904;49.152;11.004;2022-09-14T07:24:49;17.00;99.90
9730;DHT22;4904;49.152;11.004;2022-09-14T07:27:19;17.00;99.90
9730;DHT22;4904;49.152;11.004;2022-09-14T07:29:51;17.00;99.90
9730;DHT22;4904;49.152;11.004;2022-09-14T07:32:21;17.00;99.90
9730;DHT22;4904;49.152;11.004;2022-09-14T07:34:48;17.00;99.90
9730;DHT22;4904;49.152;11.004;2022-09-14T07:37:16;17.10;99.90
9730;DHT22;4904;49.152;11.004;2022-09-14T07:39:43;17.10;99.90
9730;DHT22;4904;49.152;11.004;2022-09-14T07:42:10;17.20;99.90
9730;DHT22;4904;49.152;11.004;2022-09-14T07:44:37;17.20;99.90
9730;DHT22;4904;49.152;11.004;2022-09-14T07:47:04;17.20;99.90
9730;DHT22;4904;49.152;11.004;2022-09-14T07:49:31;17.30;99.90
9730;DHT22;4904;49.152;11.004;2022-09-14T07:51:58;17.30;99.90
9730;DHT22;4904;49.152;11.004;2022-09-14T07:54:27;17.40;99.90
9730;DHT22;4904;49.152;11.004;2022-09-14T07:56:53;17.40;99.90
9730;DHT22;4904;49.152;11.004;2022-09-14T07:59:20;17.40;99.90
9730;DHT22;4904;49.152;11.004;2022-09-14T08:01:47;17.40;99.90
9730;DHT22;4904;49.152;11.004;2022-09-14T08:04:14;17.40;99.90
9730;DHT22;4904;49.152;11.004;2022-09-14T08:06:41;17.50;99.90
9730;DHT22;4904;49.152;11.004;2022-09-14T08:09:08;17.50;99.90
9730;DHT22;4904;49.152;11.004;2022-09-14T08:11:37;17.50;99.90
9730;DHT22;4904;49.152;11.004;2022-09-14T08:14:05;17.60;99.90
9730;DHT22;4904;49.152;11.004;2022-09-14T08:16:34;17.60;99.90
9730;DHT22;4904;49.152;11.004;2022-09-14T08:19:05;17.60;99.90
9730;DHT22;4904;49.152;11.004;2022-09-14T08:21:33;17.60;99.90
9730;DHT22;4904;49.152;11.004;2022-09-14T08:24:02;17.60;99.90
9730;DHT22;4904;49.152;11.004;2022-09-14T08:26:29;17.60;99.90
9730;DHT22;4904;49.152;11.004;2022-09-14T08:28:58;17.60;99.90
9730;DHT22;4904;49.152;11.004;2022-09-14T08:31:26;17.70;99.90
9730;DHT22;4904;49.152;11.004;2022-09-14T08:33:55;17.80;99.90
9730;DHT22;4904;49.152;11.004;2022-09-14T08:36:24;17.80;99.90
9730;DHT22;4904;49.152;11.004;2022-09-14T08:38:51;17.90;99.90
9730;DHT22;4904;49.152;11.004;2022-09-14T08:41:25;18.00;99.90
9730;DHT22;4904;49.152;11.004;2022-09-14T08:43:53;18.00;99.90
9730;DHT22;4904;49.152;11.004;2022-09-14T08:46:28;18.20;99.90
9730;DHT22;4904;49.152;11.004;2022-09-14T08:48:56;18.30;99.90
9730;DHT22;4904;49.152;11.004;2022-09-14T08:51:24;18.40;99.90
9730;DHT22;4904;49.152;11.004;2022-09-14T08:53:52;18.60;99.90
9730;DHT22;4904;49.152;11.004;2022-09-14T08:56:24;18.60;99.90
9730;DHT22;4904;49.152;11.004;2022-09-14T08:59:05;18.60;99.90
9730;DHT22;4904;49.152;11.004;2022-09-14T09:01:44;18.70;99.90
9730;DHT22;4904;49.152;11.004;2022-09-14T09:04:35;18.70;99.90
9730;DHT22;4904;49.152;11.004;2022-09-14T09:07:09;18.70;99.90
9730;DHT22;4904;49.152;11.004;2022-09-14T09:09:41;18.80;99.90
9730;DHT22;4904;49.152;11.004;2022-09-14T09:12:12;18.90;99.90
9730;DHT22;4904;49.152;11.004;2022-09-14T09:14:43;18.90;99.90
9730;DHT22;4904;49.152;11.004;2022-09-14T09:17:16;19.00;99.90
9730;DHT22;4904;49.152;11.004;2022-09-14T09:19:51;19.00;99.90
9730;DHT22;4904;49.152;11.004;2022-09-14T09:22:22;19.00;99.90
9730;DHT22;4904;49.152;11.004;2022-09-14T09:24:52;19.10;99.90
9730;DHT22;4904;49.152;11.004;2022-09-14T09:27:22;19.10;99.90
9730;DHT22;4904;49.152;11.004;2022-09-14T09:29:49;19.10;99.90
9730;DHT22;4904;49.152;11.004;2022-09-14T09:32:20;19.20;99.90
9730;DHT22;4904;49.152;11.004;2022-09-14T09:34:47;19.20;99.90
9730;DHT22;4904;49.152;11.004;2022-09-14T09:37:16;19.30;99.90
9730;DHT22;4904;49.152;11.004;2022-09-14T09:39:44;19.30;99.90
9730;DHT22;4904;49.152;11.004;2022-09-14T09:42:14;19.40;99.90
9730;DHT22;4904;49.152;11.004;2022-09-14T09:44:54;19.40;99.90
9730;DHT22;4904;49.152;11.004;2022-09-14T09:47:28;19.60;99.90
9730;DHT22;4904;49.152;11.004;2022-09-14T09:49:58;19.60;99.90
9730;DHT22;4904;49.152;11.004;2022-09-14T09:52:26;19.70;99.90
9730;DHT22;4904;49.152;11.004;2022-09-14T09:54:55;19.80;99.90
9730;DHT22;4904;49.152;11.004;2022-09-14T09:57:31;19.90;99.90
9730;DHT22;4904;49.152;11.004;2022-09-14T10:00:10;20.00;99.90
9730;DHT22;4904;49.152;11.004;2022-09-14T10:02:40;20.10;99.90
9730;DHT22;4904;49.152;11.004;2022-09-14T10:05:23;20.20;99.90
9730;DHT22;4904;49.152;11.004;2022-09-14T10:07:55;20.20;99.90
9730;DHT22;4904;49.152;11.004;2022-09-14T10:10:37;20.30;99.90
9730;DHT22;4904;49.152;11.004;2022-09-14T10:13:11;20.30;99.90
9730;DHT22;4904;49.152;11.004;2022-09-14T10:15:39;20.40;99.90
9730;DHT22;4904;49.152;11.004;2022-09-14T10:18:15;20.50;99.90
9730;DHT22;4904;49.152;11.004;2022-09-14T10:20:45;20.50;99.90
9730;DHT22;4904;49.152;11.004;2022-09-14T10:23:33;20.60;99.90
9730;DHT22;4904;49.152;11.004;2022-09-14T10:26:22;20.60;99.90
9730;DHT22;4904;49.152;11.004;2022-09-14T10:28:50;20.70;99.90
9730;DHT22;4904;49.152;11.004;2022-09-14T10:31:24;20.80;99.90
9730;DHT22;4904;49.152;11.004;2022-09-14T10:33:55;20.80;99.90
9730;DHT22;4904;49.152;11.004;2022-09-14T10:36:25;20.80;99.90
9730;DHT22;4904;49.152;11.004;2022-09-14T10:38:57;20.90;99.90
9730;DHT22;4904;49.152;11.004;2022-09-14T10:41:31;21.00;99.90
9730;DHT22;4904;49.152;11.004;2022-09-14T10:44:28;21.00;99.90
9730;DHT22;4904;49.152;11.004;2022-09-14T10:47:11;21.10;99.90
9730;DHT22;4904;49.152;11.004;2022-09-14T10:49:51;21.30;99.90
9730;DHT22;4904;49.152;11.004;2022-09-14T10:52:33;21.40;99.90
9730;DHT22;4904;49.152;11.004;2022-09-14T10:55:20;21.60;99.90
9730;DHT22;4904;49.152;11.004;2022-09-14T10:58:03;21.70;99.90
9730;DHT22;4904;49.152;11.004;2022-09-14T11:00:41;21.80;99.90
9730;DHT22;4904;49.152;11.004;2022-09-14T11:03:23;22.00;99.90
9730;DHT22;4904;49.152;11.004;2022-09-14T11:06:02;22.20;99.90
9730;DHT22;4904;49.152;11.004;2022-09-14T11:08:37;22.00;99.90
9730;DHT22;4904;49.152;11.004;2022-09-14T11:11:27;22.20;99.90
9730;DHT22;4904;49.152;11.004;2022-09-14T11:14:05;22.10;99.90
9730;DHT22;4904;49.152;11.004;2022-09-14T11:16:50;22.10;99.90
9730;DHT22;4904;49.152;11.004;2022-09-14T11:19:31;22.20;99.90
9730;DHT22;4904;49.152;11.004;2022-09-14T11:22:09;22.30;99.90
9730;DHT22;4904;49.152;11.004;2022-09-14T11:24:41;22.40;99.90
9730;DHT22;4904;49.152;11.004;2022-09-14T11:27:15;22.40;99.90
9730;DHT22;4904;49.152;11.004;2022-09-14T11:29:48;22.50;99.90
9730;DHT22;4904;49.152;11.004;2022-09-14T11:32:20;22.80;99.90
9730;DHT22;4904;49.152;11.004;2022-09-14T11:34:51;22.90;99.90
9730;DHT22;4904;49.152;11.004;2022-09-14T11:37:28;22.90;99.90
9730;DHT22;4904;49.152;11.004;2022-09-14T11:40:03;23.00;99.90
9730;DHT22;4904;49.152;11.004;2022-09-14T11:42:36;23.00;99.90
9730;DHT22;4904;49.152;11.004;2022-09-14T11:45:14;23.10;99.90
9730;DHT22;4904;49.152;11.004;2022-09-14T11:47:46;23.20;99.90
9730;DHT22;4904;49.152;11.004;2022-09-14T11:50:18;23.10;99.90
9730;DHT22;4904;49.152;11.004;2022-09-14T11:52:57;23.10;99.90
9730;DHT22;4904;49.152;11.004;2022-09-14T11:55:27;23.00;99.90
9730;DHT22;4904;49.152;11.004;2022-09-14T11:57:54;22.90;99.90
9730;DHT22;4904;49.152;11.004;2022-09-14T12:00:44;22.90;99.90
9730;DHT22;4904;49.152;11.004;2022-09-14T12:03:15;22.90;99.90
9730;DHT22;4904;49.152;11.004;2022-09-14T12:05:43;22.80;99.90
9730;DHT22;4904;49.152;11.004;2022-09-14T12:08:39;22.80;99.90
9730;DHT22;4904;49.152;11.004;2022-09-14T12:11:28;22.80;99.90
9730;DHT22;4904;49.152;11.004;2022-09-14T12:14:13;22.80;99.90
9730;DHT22;4904;49.152;11.004;2022-09-14T12:17:03;22.90;99.90
9730;DHT22;4904;49.152;11.004;2022-09-14T12:19:31;22.90;99.90
9730;DHT22;4904;49.152;11.004;2022-09-14T12:22:25;22.90;99.90
9730;DHT22;4904;49.152;11.004;2022-09-14T12:25:00;22.90;99.90
9730;DHT22;4904;49.152;11.004;2022-09-14T12:27:29;23.00;99.90
9730;DHT22;4904;49.152;11.004;2022-09-14T12:29:57;23.00;99.90
9730;DHT22;4904;49.152;11.004;2022-09-14T12:32:40;23.10;99.90
9730;DHT22;4904;49.152;11.004;2022-09-14T12:35:45;23.10;99.90
9730;DHT22;4904;49.152;11.004;2022-09-14T12:38:38;23.20;99.90
9730;DHT22;4904;49.152;11.004;2022-09-14T12:44:28;23.20;99.90
9730;DHT22;4904;49.152;11.004;2022-09-14T12:46:55;23.20;99.90
9730;DHT22;4904;49.152;11.004;2022-09-14T12:49:30;23.10;99.90
9730;DHT22;4904;49.152;11.004;2022-09-14T12:52:31;23.10;99.90
9730;DHT22;4904;49.152;11.004;2022-09-14T12:55:13;23.00;99.90
9730;DHT22;4904;49.152;11.004;2022-09-14T12:57:45;23.00;99.90
9730;DHT22;4904;49.152;11.004;2022-09-14T13:00:18;23.00;99.90
9730;DHT22;4904;49.152;11.004;2022-09-14T13:05:42;23.20;99.90
9730;DHT22;4904;49.152;11.004;2022-09-14T13:08:11;23.30;99.90
9730;DHT22;4904;49.152;11.004;2022-09-14T13:10:44;23.40;99.90
9730;DHT22;4904;49.152;11.004;2022-09-14T13:13:14;23.50;99.90
9730;DHT22;4904;49.152;11.004;2022-09-14T13:15:49;23.50;99.90
9730;DHT22;4904;49.152;11.004;2022-09-14T13:18:29;23.50;99.90
9730;DHT22;4904;49.152;11.004;2022-09-14T13:20:59;23.50;99.90
9730;DHT22;4904;49.152;11.004;2022-09-14T13:23:29;23.50;99.90
9730;DHT22;4904;49.152;11.004;2022-09-14T13:25:57;23.50;99.90
9730;DHT22;4904;49.152;11.004;2022-09-14T13:28:29;23.60;99.90
9730;DHT22;4904;49.152;11.004;2022-09-14T13:30:59;23.80;99.90
9730;DHT22;4904;49.152;11.004;2022-09-14T13:33:27;23.80;99.90
9730;DHT22;4904;49.152;11.004;2022-09-14T13:35:56;23.80;99.90
9730;DHT22;4904;49.152;11.004;2022-09-14T13:38:26;23.90;99.90
9730;DHT22;4904;49.152;11.004;2022-09-14T13:41:03;24.00;99.90
9730;DHT22;4904;49.152;11.004;2022-09-14T13:43:31;24.00;99.90
9730;DHT22;4904;49.152;11.004;2022-09-14T13:46:00;23.90;99.90
9730;DHT22;4904;49.152;11.004;2022-09-14T13:48:31;23.80;99.90
9730;DHT22;4904;49.152;11.004;2022-09-14T13:50:58;23.80;99.90
9730;DHT22;4904;49.152;11.004;2022-09-14T13:53:40;23.80;99.90
9730;DHT22;4904;49.152;11.004;2022-09-14T13:56:32;23.90;99.90
9730;DHT22;4904;49.152;11.004;2022-09-14T13:59:17;23.90;99.90
9730;DHT22;4904;49.152;11.004;2022-09-14T14:01:58;24.00;99.90
9730;DHT22;4904;49.152;11.004;2022-09-14T14:04:30;24.00;99.90
9730;DHT22;4904;49.152;11.004;2022-09-14T14:07:16;24.00;99.90
9730;DHT22;4904;49.152;11.004;2022-09-14T14:09:46;24.00;99.90
9730;DHT22;4904;49.152;11.004;2022-09-14T14:12:22;24.00;99.90
9730;DHT22;4904;49.152;11.004;2022-09-14T14:14:57;24.00;99.90
9730;DHT22;4904;49.152;11.004;2022-09-14T14:17:35;23.90;99.90
9730;DHT22;4904;49.152;11.004;2022-09-14T14:20:28;23.90;99.90
9730;DHT22;4904;49.152;11.004;2022-09-14T14:22:58;23.90;99.90
9730;DHT22;4904;49.152;11.004;2022-09-14T14:25:28;23.80;99.90
9730;DHT22;4904;49.152;11.004;2022-09-14T14:27:58;23.80;99.90
9730;DHT22;4904;49.152;11.004;2022-09-14T14:30:27;23.80;99.90
9730;DHT22;4904;49.152;11.004;2022-09-14T14:33:04;23.80;99.90
9730;DHT22;4904;49.152;11.004;2022-09-14T14:35:33;23.80;99.90
9730;DHT22;4904;49.152;11.004;2022-09-14T14:37:59;23.80;99.90
9730;DHT22;4904;49.152;11.004;2022-09-14T14:40:26;23.80;99.90
9730;DHT22;4904;49.152;11.004;2022-09-14T14:42:54;23.80;99.90
9730;DHT22;4904;49.152;11.004;2022-09-14T14:45:24;23.80;99.90
9730;DHT22;4904;49.152;11.004;2022-09-14T14:47:53;23.70;99.90
9730;DHT22;4904;49.152;11.004;2022-09-14T14:50:24;23.70;99.90
9730;DHT22;4904;49.152;11.004;2022-09-14T14:52:52;23.60;99.90
9730;DHT22;4904;49.152;11.004;2022-09-14T14:55:20;23.60;99.90
9730;DHT22;4904;49.152;11.004;2022-09-14T14:57:48;23.40;99.90
9730;DHT22;4904;49.152;11.004;2022-09-14T15:00:17;23.30;99.90
9730;DHT22;4904;49.152;11.004;2022-09-14T15:02:44;23.00;99.90
9730;DHT22;4904;49.152;11.004;2022-09-14T15:05:11;22.80;99.90
9730;DHT22;4904;49.152;11.004;2022-09-14T15:07:40;22.60;99.90
9730;DHT22;4904;49.152;11.004;2022-09-14T15:10:08;22.30;99.90
9730;DHT22;4904;49.152;11.004;2022-09-14T15:12:37;21.90;99.90
9730;DHT22;4904;49.152;11.004;2022-09-14T15:15:04;21.80;99.90
9730;DHT22;4904;49.152;11.004;2022-09-14T15:17:31;21.70;99.90
9730;DHT22;4904;49.152;11.004;2022-09-14T15:19:58;21.70;99.90
9730;DHT22;4904;49.152;11.004;2022-09-14T15:22:25;21.70;99.90
9730;DHT22;4904;49.152;11.004;2022-09-14T15:24:53;21.70;99.90
9730;DHT22;4904;49.152;11.004;2022-09-14T15:27:20;21.60;99.90
9730;DHT22;4904;49.152;11.004;2022-09-14T15:29:47;21.40;99.90
9730;DHT22;4904;49.152;11.004;2022-09-14T15:32:14;21.10;99.90
9730;DHT22;4904;49.152;11.004;2022-09-14T15:34:41;20.90;99.90
9730;DHT22;4904;49.152;11.004;2022-09-14T15:37:08;20.90;99.90
9730;DHT22;4904;49.152;11.004;2022-09-14T15:39:35;20.80;99.90
9730;DHT22;4904;49.152;11.004;2022-09-14T15:42:04;20.80;99.90
9730;DHT22;4904;49.152;11.004;2022-09-14T15:44:31;20.80;99.90
9730;DHT22;4904;49.152;11.004;2022-09-14T15:46:58;20.70;99.90
9730;DHT22;4904;49.152;11.004;2022-09-14T15:49:26;20.80;99.90
9730;DHT22;4904;49.152;11.004;2022-09-14T15:51:55;20.70;99.90
9730;DHT22;4904;49.152;11.004;2022-09-14T15:54:23;20.70;99.90
9730;DHT22;4904;49.152;11.004;2022-09-14T15:56:52;20.70;99.90
9730;DHT22;4904;49.152;11.004;2022-09-14T15:59:21;20.70;99.90
9730;DHT22;4904;49.152;11.004;2022-09-14T16:01:48;20.60;99.90
9730;DHT22;4904;49.152;11.004;2022-09-14T16:04:15;20.60;99.90
9730;DHT22;4904;49.152;11.004;2022-09-14T16:06:43;20.50;99.90
9730;DHT22;4904;49.152;11.004;2022-09-14T16:09:12;20.40;99.90
9730;DHT22;4904;49.152;11.004;2022-09-14T16:11:40;20.30;99.90
9730;DHT22;4904;49.152;11.004;2022-09-14T16:14:08;20.30;99.90
9730;DHT22;4904;49.152;11.004;2022-09-14T16:16:37;20.20;99.90